aviador You're here:

SARE Decoded Metar

RESISTENCIA in ARGENTINA
Report Time2017-08-24 08:00:00
UTC Time2017-08-24 08:50:23
Flight Rules vfr VFR
Wind030° at 14 kt
W.Decomp.*RWY 03: 13.7 kt HW 2.7 kt RCW
W.Rank030° ranks 20
Current wind is above 030° avg. (7.7)
Visibility9999 m
Phenomena:N/A
Clouds:N/A
Expected CloudBase > 2,800 ft AGL from Temp-Dew spread
CeilingNone
Temp24°C (ISA +9)
Dew Point17°C (65% RH)
AAT21.3°C
QNH1007 hPa
Density Alt1,716 ft
Elevation171 ft
Report Wrong Elevation
Raw Report
SARE 240800Z 03014KT CAVOK 24/17 Q1007=

Extra information for SARE:More info

Metar Taf Metar & Taf Last 4 Metars F.Rules Stats Wind Profile Meteogram Temp Stats Airport Information Weather charts Add Link Nearby VenuesMetar ALERT Operation Metar Decoded Social comments